Time;durP1;ratioP1;P1;durP2;ratioP2;P2;SDS_P1;SDS_P2;PMS_P1;PMS_P2;Temp;Humidity;BMP_temperature;BMP_pressure;BME280_temperature;BME280_humidity;BME280_pressure;Samples;Min_cycle;Max_cycle;Signal;HPM_P1;HPM_P2
2021/07/17 00:02:10;;;;;;;;;;;19.20;80.60;;;;;;5094409;28;20339;-49
2021/07/17 00:04:36;;;;;;;;;;;19.10;81.00;;;;;;5094024;28;19904;-49
2021/07/17 00:07:01;;;;;;;;;;;19.10;81.00;;;;;;5075872;28;20311;-48
2021/07/17 00:09:27;;;;;;;;;;;19.10;80.60;;;;;;5094502;28;19911;-48
2021/07/17 00:11:53;;;;;;;;;;;19.10;80.90;;;;;;5095158;28;19908;-48
2021/07/17 00:14:18;;;;;;;;;;;19.20;80.60;;;;;;5094129;28;20317;-48
2021/07/17 00:16:44;;;;;;;;;;;18.80;81.90;;;;;;5094001;28;20050;-51
2021/07/17 00:19:10;;;;;;;;;;;18.80;82.10;;;;;;5094108;28;19904;-49
2021/07/17 00:21:35;;;;;;;;;;;18.80;82.20;;;;;;5094209;28;19904;-49
2021/07/17 00:24:01;;;;;;;;;;;19.10;81.50;;;;;;5093712;28;20411;-48
2021/07/17 00:26:27;;;;;;;;;;;19.00;81.40;;;;;;5093747;28;20331;-48
2021/07/17 00:28:52;;;;;;;;;;;19.00;81.80;;;;;;5093733;28;19953;-48
2021/07/17 00:31:18;;;;;;;;;;;18.90;81.70;;;;;;5075669;28;19904;-47
2021/07/17 00:33:43;;;;;;;;;;;19.00;81.80;;;;;;5093762;28;19908;-52
2021/07/17 00:36:10;;;;;;;;;;;18.80;82.00;;;;;;5094891;28;20256;-52
2021/07/17 00:38:35;;;;;;;;;;;18.80;82.10;;;;;;5093892;28;20348;-53
2021/07/17 00:41:01;;;;;;;;;;;18.80;82.20;;;;;;5075657;28;19904;-48
2021/07/17 00:43:27;;;;;;;;;;;19.00;81.50;;;;;;5075782;28;19904;-47
2021/07/17 00:45:53;;;;;;;;;;;18.80;81.80;;;;;;5093754;28;20330;-47
2021/07/17 00:48:19;;;;;;;;;;;18.90;81.70;;;;;;5093799;28;20405;-48
2021/07/17 00:50:45;;;;;;;;;;;18.80;81.50;;;;;;5094086;28;19935;-47
2021/07/17 00:53:10;;;;;;;;;;;18.80;81.60;;;;;;5093735;28;20284;-48
2021/07/17 00:55:38;;;;;;;;;;;18.80;81.10;;;;;;5093598;28;19908;-48
2021/07/17 00:58:05;;;;;;;;;;;18.80;80.80;;;;;;5075916;28;19911;-47
2021/07/17 01:00:30;;;;;;;;;;;18.80;80.30;;;;;;5094063;28;19904;-51
2021/07/17 01:03:03;;;;;;;;;;;18.80;80.40;;;;;;5093661;28;19994;-49
2021/07/17 01:05:29;;;;;;;;;;;18.80;80.20;;;;;;5094060;28;19904;-47
2021/07/17 01:07:54;;;;;;;;;;;18.80;80.10;;;;;;5093952;28;20245;-47
2021/07/17 01:10:20;;;;;;;;;;;18.70;79.90;;;;;;5093619;28;19939;-49
2021/07/17 01:12:46;;;;;;;;;;;18.70;80.20;;;;;;5093422;28;19910;-48
2021/07/17 01:15:12;;;;;;;;;;;18.70;80.10;;;;;;5093423;28;20318;-47
2021/07/17 01:17:38;;;;;;;;;;;18.70;80.10;;;;;;5093635;28;19904;-50
2021/07/17 01:20:05;;;;;;;;;;;18.60;80.30;;;;;;5075154;28;19904;-53
2021/07/17 01:22:31;;;;;;;;;;;18.60;80.10;;;;;;5093327;28;19911;-49
2021/07/17 01:24:57;;;;;;;;;;;18.60;80.40;;;;;;5093406;28;19904;-47
2021/07/17 01:27:22;;;;;;;;;;;18.50;80.60;;;;;;5093201;28;20028;-49
2021/07/17 01:29:48;;;;;;;;;;;18.50;80.80;;;;;;5093466;28;19939;-48
2021/07/17 01:32:18;;;;;;;;;;;18.50;81.10;;;;;;5093328;28;20382;-48
2021/07/17 01:34:50;;;;;;;;;;;18.40;81.30;;;;;;5093038;28;19908;-49
2021/07/17 01:37:19;;;;;;;;;;;18.30;81.90;;;;;;5093643;28;19915;-53
2021/07/17 01:39:45;;;;;;;;;;;18.30;81.90;;;;;;5077726;28;19904;-49
2021/07/17 01:42:10;;;;;;;;;;;18.30;81.90;;;;;;5078878;28;19911;-51
2021/07/17 01:44:40;;;;;;;;;;;18.30;82.00;;;;;;5097234;28;19904;-49
2021/07/17 01:47:05;;;;;;;;;;;18.40;81.70;;;;;;5097092;28;19926;-49
2021/07/17 01:49:31;;;;;;;;;;;18.50;81.60;;;;;;5096815;28;20351;-47
2021/07/17 01:51:56;;;;;;;;;;;18.50;81.00;;;;;;5096784;28;19904;-48
2021/07/17 01:54:22;;;;;;;;;;;18.60;81.20;;;;;;5096674;28;19910;-50
2021/07/17 01:56:48;;;;;;;;;;;18.50;81.20;;;;;;5096570;28;19912;-47
2021/07/17 01:59:13;;;;;;;;;;;18.50;81.40;;;;;;5097197;28;19908;-48
2021/07/17 02:01:39;;;;;;;;;;;18.50;81.10;;;;;;5096765;28;20280;-49
2021/07/17 02:04:04;;;;;;;;;;;18.40;81.60;;;;;;5096802;28;20317;-49
2021/07/17 02:06:30;;;;;;;;;;;18.30;81.90;;;;;;5078311;28;20412;-47
2021/07/17 02:08:55;;;;;;;;;;;18.30;81.70;;;;;;5096782;28;20365;-49
2021/07/17 02:11:21;;;;;;;;;;;18.40;81.20;;;;;;5096366;28;19904;-47
2021/07/17 02:13:48;;;;;;;;;;;18.50;80.50;;;;;;5096572;28;19904;-51
2021/07/17 02:16:13;;;;;;;;;;;18.60;80.50;;;;;;5096186;28;20338;-50
2021/07/17 02:18:39;;;;;;;;;;;18.50;80.50;;;;;;5096822;28;19939;-48
2021/07/17 02:21:05;;;;;;;;;;;18.50;80.70;;;;;;5096140;28;20354;-48
2021/07/17 02:23:31;;;;;;;;;;;18.50;80.40;;;;;;5096710;28;19908;-47
2021/07/17 02:25:57;;;;;;;;;;;18.50;80.30;;;;;;5096109;28;19904;-47
2021/07/17 02:28:22;;;;;;;;;;;18.70;79.90;;;;;;5096000;28;20011;-47
2021/07/17 02:30:48;;;;;;;;;;;18.60;79.70;;;;;;5096290;28;19949;-48
2021/07/17 02:33:14;;;;;;;;;;;18.50;80.30;;;;;;5096015;28;20378;-48
2021/07/17 02:35:39;;;;;;;;;;;18.40;80.50;;;;;;5095638;28;19916;-53
2021/07/17 02:38:05;;;;;;;;;;;18.60;79.90;;;;;;5095886;28;19935;-50
2021/07/17 02:40:30;;;;;;;;;;;18.70;79.70;;;;;;5095840;28;19914;-48
2021/07/17 02:42:56;;;;;;;;;;;18.60;79.80;;;;;;5095785;28;20267;-47
2021/07/17 02:45:21;;;;;;;;;;;18.50;80.30;;;;;;5095703;28;19998;-46
2021/07/17 02:47:47;;;;;;;;;;;18.50;80.10;;;;;;5078350;28;19904;-47
2021/07/17 02:50:13;;;;;;;;;;;18.30;80.90;;;;;;5094685;28;20399;-51
2021/07/17 02:52:38;;;;;;;;;;;18.30;80.90;;;;;;5096402;28;20390;-47
2021/07/17 02:55:04;;;;;;;;;;;18.30;80.40;;;;;;5095730;28;19912;-47
2021/07/17 02:57:30;;;;;;;;;;;18.40;80.00;;;;;;5077334;28;20000;-47
2021/07/17 02:59:55;;;;;;;;;;;18.30;80.70;;;;;;5095398;28;20351;-47
2021/07/17 03:02:21;;;;;;;;;;;18.40;80.10;;;;;;5095399;28;19904;-47
2021/07/17 03:04:47;;;;;;;;;;;18.30;80.70;;;;;;5095380;28;20343;-47
2021/07/17 03:07:13;;;;;;;;;;;18.30;81.20;;;;;;5077243;28;19911;-49
2021/07/17 03:09:39;;;;;;;;;;;18.30;81.50;;;;;;5095266;28;19957;-47
2021/07/17 03:12:06;;;;;;;;;;;18.30;80.90;;;;;;5095273;28;19904;-48
2021/07/17 03:14:32;;;;;;;;;;;18.50;80.50;;;;;;5095454;28;19914;-48
2021/07/17 03:16:57;;;;;;;;;;;18.50;80.10;;;;;;5095237;28;19908;-49
2021/07/17 03:19:23;;;;;;;;;;;18.30;81.00;;;;;;5095016;28;19928;-50
2021/07/17 03:21:48;;;;;;;;;;;18.30;81.30;;;;;;5094983;28;19904;-49
2021/07/17 03:24:14;;;;;;;;;;;18.20;81.80;;;;;;5095877;28;19904;-49
2021/07/17 03:26:39;;;;;;;;;;;18.40;81.30;;;;;;5094900;28;19911;-48
2021/07/17 03:29:05;;;;;;;;;;;18.30;81.40;;;;;;5094867;28;20019;-48
2021/07/17 03:31:31;;;;;;;;;;;18.40;81.30;;;;;;5095096;28;19908;-48
2021/07/17 03:33:57;;;;;;;;;;;18.40;81.50;;;;;;5076686;28;20288;-48
2021/07/17 03:36:23;;;;;;;;;;;18.40;81.50;;;;;;5094536;28;20006;-48
2021/07/17 03:38:48;;;;;;;;;;;18.50;81.70;;;;;;5094688;28;20429;-48
2021/07/17 03:41:14;;;;;;;;;;;18.40;81.70;;;;;;5076517;28;19996;-49
2021/07/17 03:43:40;;;;;;;;;;;18.30;82.50;;;;;;5094965;28;19989;-50
2021/07/17 03:46:05;;;;;;;;;;;18.30;82.60;;;;;;5094761;28;20018;-47
2021/07/17 03:48:31;;;;;;;;;;;18.30;82.70;;;;;;5094797;28;20370;-47
2021/07/17 03:50:56;;;;;;;;;;;18.20;83.20;;;;;;5095116;28;19999;-47
2021/07/17 03:53:22;;;;;;;;;;;18.20;83.30;;;;;;5094765;28;20299;-47
2021/07/17 03:55:47;;;;;;;;;;;18.10;83.70;;;;;;5094630;28;19961;-47
2021/07/17 03:58:13;;;;;;;;;;;18.10;83.80;;;;;;5094426;28;19914;-48
2021/07/17 04:00:38;;;;;;;;;;;18.10;84.10;;;;;;5094610;28;19904;-51
2021/07/17 04:03:04;;;;;;;;;;;18.20;83.50;;;;;;5094209;28;20325;-47
2021/07/17 04:05:30;;;;;;;;;;;18.10;83.30;;;;;;5094193;28;19904;-47
2021/07/17 04:07:56;;;;;;;;;;;18.20;83.30;;;;;;5076077;28;19927;-49
2021/07/17 04:10:22;;;;;;;;;;;18.30;83.00;;;;;;5094209;28;19946;-47
2021/07/17 04:12:47;;;;;;;;;;;18.20;83.40;;;;;;5094151;28;20313;-49
2021/07/17 04:15:13;;;;;;;;;;;18.20;83.50;;;;;;5094401;28;20002;-49
2021/07/17 04:17:38;;;;;;;;;;;18.20;83.20;;;;;;5094057;28;20316;-52
2021/07/17 04:20:07;;;;;;;;;;;18.30;82.60;;;;;;5094274;28;19911;-49
2021/07/17 04:22:34;;;;;;;;;;;18.40;81.90;;;;;;5094314;28;19904;-50
2021/07/17 04:24:59;;;;;;;;;;;18.30;82.40;;;;;;5075908;28;19904;-47
2021/07/17 04:27:25;;;;;;;;;;;18.20;83.00;;;;;;5094023;28;20003;-50
2021/07/17 04:29:50;;;;;;;;;;;18.20;82.60;;;;;;5093884;28;20352;-48
2021/07/17 04:32:16;;;;;;;;;;;18.10;82.70;;;;;;5093935;28;19953;-50
2021/07/17 04:34:41;;;;;;;;;;;18.20;82.90;;;;;;5093948;28;20277;-48
2021/07/17 04:37:07;;;;;;;;;;;18.10;82.80;;;;;;5075836;28;19915;-49
2021/07/17 04:39:32;;;;;;;;;;;18.20;82.50;;;;;;5093847;28;19935;-51
2021/07/17 04:41:58;;;;;;;;;;;18.10;82.90;;;;;;5093879;28;19911;-48
2021/07/17 04:44:24;;;;;;;;;;;18.10;83.30;;;;;;5093821;28;19908;-48
2021/07/17 04:46:49;;;;;;;;;;;18.20;83.10;;;;;;5075682;28;19904;-47
2021/07/17 04:49:15;;;;;;;;;;;18.30;80.90;;;;;;5093716;28;20346;-49
2021/07/17 04:51:40;;;;;;;;;;;18.30;80.90;;;;;;5093717;28;20373;-50
2021/07/17 04:54:06;;;;;;;;;;;18.30;79.80;;;;;;5093762;28;19957;-49
2021/07/17 04:56:31;;;;;;;;;;;18.20;80.10;;;;;;5075717;28;19914;-50
2021/07/17 04:58:57;;;;;;;;;;;18.20;80.20;;;;;;5093751;28;19992;-48
2021/07/17 05:01:22;;;;;;;;;;;18.20;80.00;;;;;;5093924;28;19904;-48
2021/07/17 05:03:48;;;;;;;;;;;18.20;79.80;;;;;;5093958;28;19904;-46
2021/07/17 05:06:13;;;;;;;;;;;18.30;79.90;;;;;;5093857;28;19908;-50
2021/07/17 05:08:39;;;;;;;;;;;18.30;80.50;;;;;;5093622;28;19951;-51
2021/07/17 05:11:04;;;;;;;;;;;18.40;81.30;;;;;;5093607;28;19904;-49
2021/07/17 05:13:30;;;;;;;;;;;18.30;81.60;;;;;;5094380;28;19944;-48
2021/07/17 05:15:56;;;;;;;;;;;18.50;81.10;;;;;;5079153;28;20317;-50
2021/07/17 05:18:21;;;;;;;;;;;18.40;81.00;;;;;;5097344;28;19935;-49
2021/07/17 05:20:47;;;;;;;;;;;18.40;81.40;;;;;;5078986;28;19948;-49
2021/07/17 05:23:13;;;;;;;;;;;18.50;80.60;;;;;;5097305;28;19904;-50
2021/07/17 05:25:38;;;;;;;;;;;18.50;80.50;;;;;;5097185;28;19991;-48
2021/07/17 05:28:04;;;;;;;;;;;18.50;80.40;;;;;;5097225;28;19904;-48
2021/07/17 05:30:30;;;;;;;;;;;18.30;80.80;;;;;;5097939;28;19904;-47
2021/07/17 05:32:56;;;;;;;;;;;18.30;81.00;;;;;;5096843;28;19956;-49
2021/07/17 05:35:22;;;;;;;;;;;18.20;81.20;;;;;;5096484;28;20428;-49
2021/07/17 05:37:48;;;;;;;;;;;18.10;81.70;;;;;;5096874;28;19904;-52
2021/07/17 05:40:14;;;;;;;;;;;18.20;81.60;;;;;;5096522;28;19915;-51
2021/07/17 05:42:39;;;;;;;;;;;18.30;81.10;;;;;;5078395;28;19904;-47
2021/07/17 05:45:05;;;;;;;;;;;18.20;81.30;;;;;;5096491;28;19918;-52
2021/07/17 05:47:31;;;;;;;;;;;18.10;81.60;;;;;;5096354;28;19991;-47
2021/07/17 05:49:56;;;;;;;;;;;18.00;81.70;;;;;;5096665;28;19904;-49
2021/07/17 05:52:22;;;;;;;;;;;18.10;81.40;;;;;;5097075;28;19904;-50
2021/07/17 05:54:47;;;;;;;;;;;18.10;80.90;;;;;;5096174;28;20356;-48
2021/07/17 05:57:13;;;;;;;;;;;18.00;81.60;;;;;;5095922;28;20014;-48
2021/07/17 05:59:38;;;;;;;;;;;18.10;81.50;;;;;;5096284;28;20416;-48
2021/07/17 06:02:04;;;;;;;;;;;18.10;81.60;;;;;;5096082;28;19908;-47
2021/07/17 06:04:30;;;;;;;;;;;18.20;81.50;;;;;;5096271;28;19904;-48
2021/07/17 06:06:56;;;;;;;;;;;18.30;81.20;;;;;;5096291;28;19911;-48
2021/07/17 06:09:21;;;;;;;;;;;18.40;80.40;;;;;;5095909;28;19904;-47
2021/07/17 06:11:47;;;;;;;;;;;18.50;80.70;;;;;;5077715;28;19927;-48
2021/07/17 06:14:12;;;;;;;;;;;18.30;80.50;;;;;;5095848;28;19904;-52
2021/07/17 06:16:38;;;;;;;;;;;18.10;81.70;;;;;;5095624;28;19998;-52
2021/07/17 06:19:04;;;;;;;;;;;18.30;81.40;;;;;;5077450;28;19915;-48
2021/07/17 06:21:29;;;;;;;;;;;18.50;80.60;;;;;;5095347;28;20325;-47
2021/07/17 06:23:56;;;;;;;;;;;18.50;80.30;;;;;;5096075;28;19912;-49
2021/07/17 06:26:22;;;;;;;;;;;18.30;81.40;;;;;;5095423;28;20340;-49
2021/07/17 06:28:48;;;;;;;;;;;18.30;81.70;;;;;;5095101;28;19911;-50
2021/07/17 06:31:13;;;;;;;;;;;18.70;80.50;;;;;;5095597;28;19908;-48
2021/07/17 06:33:39;;;;;;;;;;;18.70;80.20;;;;;;5095371;28;19908;-47
2021/07/17 06:36:04;;;;;;;;;;;18.90;79.50;;;;;;5095279;28;19916;-47
2021/07/17 06:38:30;;;;;;;;;;;19.00;79.10;;;;;;5095153;28;19905;-51
2021/07/17 06:40:55;;;;;;;;;;;19.00;78.70;;;;;;5095761;28;19911;-48
2021/07/17 06:43:21;;;;;;;;;;;19.00;79.00;;;;;;5095856;28;20406;-50
2021/07/17 06:45:46;;;;;;;;;;;18.80;79.90;;;;;;5095692;28;19911;-51
2021/07/17 06:48:12;;;;;;;;;;;18.50;80.60;;;;;;5095432;28;19904;-57
2021/07/17 06:50:37;;;;;;;;;;;18.30;81.40;;;;;;5095476;28;19904;-52
2021/07/17 06:53:03;;;;;;;;;;;18.40;81.40;;;;;;5095235;28;20352;-50
2021/07/17 06:55:30;;;;;;;;;;;18.60;80.70;;;;;;5094545;28;19974;-51
2021/07/17 06:57:56;;;;;;;;;;;18.60;80.60;;;;;;5094730;28;19904;-51
2021/07/17 07:00:21;;;;;;;;;;;18.80;80.10;;;;;;5094951;28;20363;-52
2021/07/17 07:02:47;;;;;;;;;;;18.80;79.80;;;;;;5094869;28;19911;-48
2021/07/17 07:05:12;;;;;;;;;;;18.80;80.10;;;;;;5094669;28;19908;-49
2021/07/17 07:07:38;;;;;;;;;;;18.70;80.70;;;;;;5094920;28;19904;-50
2021/07/17 07:10:05;;;;;;;;;;;18.80;80.30;;;;;;5094551;28;20279;-47
2021/07/17 07:12:31;;;;;;;;;;;18.90;80.10;;;;;;5075883;28;19904;-48
2021/07/17 07:14:56;;;;;;;;;;;18.90;80.10;;;;;;5094445;28;19993;-50
2021/07/17 07:17:22;;;;;;;;;;;19.00;79.60;;;;;;5094499;28;19907;-49
2021/07/17 07:19:47;;;;;;;;;;;19.00;79.70;;;;;;5094756;28;20352;-48
2021/07/17 07:22:13;;;;;;;;;;;18.80;80.70;;;;;;5094807;28;20271;-51
2021/07/17 07:24:39;;;;;;;;;;;18.70;80.70;;;;;;5094787;28;19904;-49
2021/07/17 07:27:04;;;;;;;;;;;18.80;81.10;;;;;;5094711;28;19904;-50
2021/07/17 07:29:30;;;;;;;;;;;18.80;80.40;;;;;;5094671;28;20391;-47
2021/07/17 07:31:55;;;;;;;;;;;19.00;80.30;;;;;;5094952;28;20333;-50
2021/07/17 07:34:21;;;;;;;;;;;19.10;79.70;;;;;;5094569;28;19904;-52
2021/07/17 07:36:47;;;;;;;;;;;19.20;79.50;;;;;;5093794;28;19915;-51
2021/07/17 07:39:13;;;;;;;;;;;19.30;78.90;;;;;;5094516;28;19904;-52
2021/07/17 07:41:38;;;;;;;;;;;19.40;78.90;;;;;;5094451;28;19911;-48
2021/07/17 07:44:04;;;;;;;;;;;19.50;78.60;;;;;;5094595;28;19904;-50
2021/07/17 07:46:32;;;;;;;;;;;19.70;78.00;;;;;;5093959;28;19952;-53
2021/07/17 07:48:59;;;;;;;;;;;20.20;76.20;;;;;;5094734;28;19947;-48
2021/07/17 07:51:24;;;;;;;;;;;20.30;75.50;;;;;;5076971;28;19914;-48
2021/07/17 07:53:50;;;;;;;;;;;20.30;75.70;;;;;;5094449;28;19994;-50
2021/07/17 07:56:15;;;;;;;;;;;20.40;75.40;;;;;;5093847;28;20042;-50
2021/07/17 07:58:41;;;;;;;;;;;20.10;76.00;;;;;;5094503;28;19904;-49
2021/07/17 08:01:06;;;;;;;;;;;20.10;76.00;;;;;;5094144;28;19904;-49
2021/07/17 08:03:32;;;;;;;;;;;20.40;74.80;;;;;;5094103;28;19957;-51
2021/07/17 08:05:57;;;;;;;;;;;20.80;74.30;;;;;;5094074;28;19904;-49
2021/07/17 08:08:23;;;;;;;;;;;20.80;74.30;;;;;;5094664;28;19908;-49
2021/07/17 08:10:48;;;;;;;;;;;21.20;72.90;;;;;;5094858;28;20344;-51
2021/07/17 08:13:14;;;;;;;;;;;21.10;73.10;;;;;;5093305;28;19911;-50
2021/07/17 08:15:39;;;;;;;;;;;21.00;72.70;;;;;;5093304;28;19934;-51
2021/07/17 08:18:05;;;;;;;;;;;21.40;72.00;;;;;;5093936;28;20256;-51
2021/07/17 08:20:30;;;;;;;;;;;22.30;68.40;;;;;;5093519;28;20279;-51
2021/07/17 08:22:56;;;;;;;;;;;22.50;67.60;;;;;;5093717;28;19904;-52
2021/07/17 08:25:21;;;;;;;;;;;22.90;65.30;;;;;;5093758;28;19911;-49
2021/07/17 08:27:47;;;;;;;;;;;22.90;65.40;;;;;;5093949;28;20275;-52
2021/07/17 08:30:13;;;;;;;;;;;23.20;65.20;;;;;;5093941;28;19950;-52
2021/07/17 08:32:38;;;;;;;;;;;23.00;65.10;;;;;;5093752;28;19911;-49
2021/07/17 08:35:05;;;;;;;;;;;23.20;64.20;;;;;;5093450;28;19970;-50
2021/07/17 08:37:30;;;;;;;;;;;23.10;64.00;;;;;;5093480;28;20425;-52
2021/07/17 08:39:56;;;;;;;;;;;22.90;65.00;;;;;;5094001;28;19904;-52
2021/07/17 08:42:21;;;;;;;;;;;22.40;67.40;;;;;;5094002;28;19905;-48
2021/07/17 08:44:48;;;;;;;;;;;22.70;65.60;;;;;;5093770;28;20267;-49
2021/07/17 08:47:17;;;;;;;;;;;22.50;66.10;;;;;;5093579;28;19908;-49
2021/07/17 08:49:47;;;;;;;;;;;22.90;65.50;;;;;;5097712;28;19911;-50
2021/07/17 08:52:13;;;;;;;;;;;23.00;64.80;;;;;;5097706;28;19927;-50
2021/07/17 08:54:41;;;;;;;;;;;23.30;64.50;;;;;;5097487;28;20348;-57
2021/07/17 08:57:10;;;;;;;;;;;24.10;62.10;;;;;;5097277;28;19908;-49
2021/07/17 08:59:36;;;;;;;;;;;24.60;60.10;;;;;;5097694;28;20355;-50
2021/07/17 09:02:03;;;;;;;;;;;25.30;57.90;;;;;;5097271;28;19908;-51
2021/07/17 09:04:28;;;;;;;;;;;25.10;58.50;;;;;;5062548;28;19904;-50
2021/07/17 09:06:54;;;;;;;;;;;24.40;58.90;;;;;;5097163;28;20248;-50
2021/07/17 09:09:30;;;;;;;;;;;24.80;57.40;;;;;;5097389;28;19911;-49
2021/07/17 09:11:57;;;;;;;;;;;25.20;56.90;;;;;;5097067;28;19910;-49
2021/07/17 09:14:38;;;;;;;;;;;25.30;57.00;;;;;;5096887;28;19935;-52
2021/07/17 09:17:04;;;;;;;;;;;25.80;55.60;;;;;;5097078;28;19947;-51
2021/07/17 09:19:31;;;;;;;;;;;25.30;57.20;;;;;;5097270;28;19904;-52
2021/07/17 09:21:56;;;;;;;;;;;25.70;54.80;;;;;;5096790;28;19999;-52
2021/07/17 09:24:22;;;;;;;;;;;24.90;55.90;;;;;;5097268;28;19939;-50
2021/07/17 09:27:02;;;;;;;;;;;24.50;57.50;;;;;;5096646;28;19961;-49
2021/07/17 09:29:35;;;;;;;;;;;24.70;56.70;;;;;;5097440;28;20010;-48
2021/07/17 09:32:01;;;;;;;;;;;25.20;55.70;;;;;;5096930;28;19907;-52
2021/07/17 09:34:28;;;;;;;;;;;25.30;54.90;;;;;;5096755;28;19904;-49
2021/07/17 09:36:56;;;;;;;;;;;25.40;54.60;;;;;;5096522;28;19920;-49
2021/07/17 09:39:29;;;;;;;;;;;25.70;53.80;;;;;;5096718;28;20326;-49
2021/07/17 09:41:57;;;;;;;;;;;26.00;52.70;;;;;;5097223;28;19912;-47
2021/07/17 09:44:24;;;;;;;;;;;26.40;51.30;;;;;;5096587;28;20000;-51
2021/07/17 09:46:49;;;;;;;;;;;25.70;53.60;;;;;;5096563;28;19953;-50
2021/07/17 09:49:16;;;;;;;;;;;25.80;53.30;;;;;;5096358;28;19991;-49
2021/07/17 09:51:42;;;;;;;;;;;26.50;51.90;;;;;;5096210;28;19926;-49
2021/07/17 09:54:07;;;;;;;;;;;26.80;49.80;;;;;;5096006;28;19904;-56
2021/07/17 09:56:35;;;;;;;;;;;25.80;53.80;;;;;;5095775;28;20298;-51
2021/07/17 09:59:02;;;;;;;;;;;26.50;52.20;;;;;;5095574;28;20042;-48
2021/07/17 10:01:29;;;;;;;;;;;27.50;48.80;;;;;;5096079;28;19910;-48
2021/07/17 10:03:59;;;;;;;;;;;26.80;50.00;;;;;;5096015;28;19911;-48
2021/07/17 10:06:35;;;;;;;;;;;26.30;51.30;;;;;;5096001;28;19988;-49
2021/07/17 10:09:20;;;;;;;;;;;26.80;50.60;;;;;;5077369;28;20310;-48
2021/07/17 10:11:50;;;;;;;;;;;26.80;50.50;;;;;;5095924;28;20314;-48
2021/07/17 10:14:17;;;;;;;;;;;26.90;50.30;;;;;;5077585;28;20317;-50
2021/07/17 10:16:43;;;;;;;;;;;27.80;47.80;;;;;;5095670;28;19930;-49
2021/07/17 10:19:09;;;;;;;;;;;27.70;48.50;;;;;;5095976;28;19935;-50
2021/07/17 10:21:35;;;;;;;;;;;28.40;46.00;;;;;;5077324;28;19943;-48
2021/07/17 10:24:00;;;;;;;;;;;27.30;48.90;;;;;;5096158;28;19904;-49
2021/07/17 10:26:26;;;;;;;;;;;27.10;49.20;;;;;;5095591;28;19904;-49
2021/07/17 10:28:53;;;;;;;;;;;28.00;46.80;;;;;;5095760;28;19915;-54
2021/07/17 10:31:19;;;;;;;;;;;28.80;45.10;;;;;;5097507;28;19904;-48
2021/07/17 10:33:44;;;;;;;;;;;27.90;46.90;;;;;;5095497;28;19926;-49
2021/07/17 10:36:14;;;;;;;;;;;27.20;48.70;;;;;;5095329;28;19970;-51
2021/07/17 10:38:43;;;;;;;;;;;26.80;50.00;;;;;;5077294;28;20000;-49
2021/07/17 10:41:09;;;;;;;;;;;26.90;48.80;;;;;;5095190;28;19919;-48
2021/07/17 10:43:35;;;;;;;;;;;27.10;49.00;;;;;;5095223;28;20340;-51
2021/07/17 10:46:01;;;;;;;;;;;27.50;48.00;;;;;;5077036;28;19912;-51
2021/07/17 10:48:31;;;;;;;;;;;27.90;46.90;;;;;;5095109;28;20363;-51
2021/07/17 10:51:00;;;;;;;;;;;27.80;46.70;;;;;;5095502;28;19998;-48
2021/07/17 10:53:40;;;;;;;;;;;28.20;45.80;;;;;;5095317;28;19904;-47
2021/07/17 10:56:25;;;;;;;;;;;28.00;47.10;;;;;;5094894;28;20277;-51
2021/07/17 10:58:50;;;;;;;;;;;27.80;46.20;;;;;;5094898;28;19904;-50
2021/07/17 11:01:16;;;;;;;;;;;27.80;46.40;;;;;;5094762;28;20244;-53
2021/07/17 11:03:41;;;;;;;;;;;27.80;46.10;;;;;;5095288;28;20267;-48
2021/07/17 11:06:26;;;;;;;;;;;27.70;47.60;;;;;;5076236;28;19904;-53
2021/07/17 11:08:52;;;;;;;;;;;27.80;46.90;;;;;;5093803;28;19910;-53
2021/07/17 11:11:26;;;;;;;;;;;28.20;46.40;;;;;;5093358;28;19904;-51
2021/07/17 11:13:52;;;;;;;;;;;28.60;45.80;;;;;;5094516;28;19956;-52
2021/07/17 11:16:36;;;;;;;;;;;28.80;45.80;;;;;;5094785;28;19908;-49
2021/07/17 11:19:13;;;;;;;;;;;28.50;44.70;;;;;;5094899;28;19992;-50
2021/07/17 11:21:39;;;;;;;;;;;28.30;45.00;;;;;;5094460;28;19911;-51
2021/07/17 11:24:06;;;;;;;;;;;28.00;46.50;;;;;;5095369;28;19904;-48
2021/07/17 11:26:31;;;;;;;;;;;27.00;48.30;;;;;;5076097;28;19930;-51
2021/07/17 11:28:57;;;;;;;;;;;27.30;48.60;;;;;;5094393;28;19990;-54
2021/07/17 11:31:26;;;;;;;;;;;27.60;48.10;;;;;;5094386;28;19948;-50
2021/07/17 11:34:09;;;;;;;;;;;28.80;44.80;;;;;;5008057;28;19967;-51
2021/07/17 11:36:34;;;;;;;;;;;29.30;44.10;;;;;;5007533;28;19962;-48
2021/07/17 11:39:02;;;;;;;;;;;29.30;44.30;;;;;;5007495;28;20323;-50
2021/07/17 11:41:28;;;;;;;;;;;29.00;44.70;;;;;;5006514;28;19956;-53
2021/07/17 11:43:53;;;;;;;;;;;28.80;44.50;;;;;;5007724;28;20353;-49
2021/07/17 11:46:19;;;;;;;;;;;28.00;47.10;;;;;;5007607;28;19910;-47
2021/07/17 11:48:59;;;;;;;;;;;28.30;45.50;;;;;;5007317;28;20004;-49
2021/07/17 11:51:25;;;;;;;;;;;28.90;44.40;;;;;;5007457;28;19963;-51
2021/07/17 11:53:55;;;;;;;;;;;28.60;44.80;;;;;;5007338;28;20284;-51
2021/07/17 11:56:20;;;;;;;;;;;27.90;46.80;;;;;;5007086;28;19914;-52
2021/07/17 11:58:46;;;;;;;;;;;28.00;46.60;;;;;;5006064;28;19917;-49
2021/07/17 12:01:14;;;;;;;;;;;28.20;46.70;;;;;;5007384;28;19910;-49
2021/07/17 12:03:41;;;;;;;;;;;28.50;45.60;;;;;;5007440;28;19944;-48
2021/07/17 12:06:07;;;;;;;;;;;28.50;44.90;;;;;;5008056;28;20341;-51
2021/07/17 12:08:32;;;;;;;;;;;29.10;44.00;;;;;;5007500;28;19909;-52
2021/07/17 12:10:58;;;;;;;;;;;28.40;45.80;;;;;;5007087;28;20050;-50
2021/07/17 12:13:25;;;;;;;;;;;28.40;45.60;;;;;;5007291;28;20008;-49
2021/07/17 12:15:51;;;;;;;;;;;28.70;44.50;;;;;;5008861;28;20445;-52
2021/07/17 12:18:18;;;;;;;;;;;28.70;44.70;;;;;;5007392;28;19910;-52
2021/07/17 12:20:45;;;;;;;;;;;28.90;44.90;;;;;;5007084;28;20421;-49
2021/07/17 12:23:11;;;;;;;;;;;29.00;44.40;;;;;;5005868;28;20356;-52
2021/07/17 12:25:39;;;;;;;;;;;29.30;44.40;;;;;;5007266;28;20356;-48
2021/07/17 12:28:05;;;;;;;;;;;28.80;44.90;;;;;;5007617;28;19916;-57
2021/07/17 12:30:32;;;;;;;;;;;28.50;45.80;;;;;;5007765;28;19992;-52
2021/07/17 12:33:18;;;;;;;;;;;29.20;45.00;;;;;;5006662;28;19921;-48
2021/07/17 12:35:44;;;;;;;;;;;29.30;43.70;;;;;;5007693;28;19916;-52
2021/07/17 12:38:29;;;;;;;;;;;29.30;43.70;;;;;;5007651;28;19913;-49
2021/07/17 12:40:58;;;;;;;;;;;29.80;42.80;;;;;;5007262;28;20378;-51
2021/07/17 12:43:26;;;;;;;;;;;29.20;44.00;;;;;;5004636;28;20033;-50
2021/07/17 12:45:58;;;;;;;;;;;29.30;43.50;;;;;;4993718;28;19920;-53
2021/07/17 12:48:24;;;;;;;;;;;30.20;41.10;;;;;;4993705;28;19910;-47
2021/07/17 12:51:01;;;;;;;;;;;29.50;42.50;;;;;;4993885;28;19959;-51
2021/07/17 12:53:26;;;;;;;;;;;29.50;42.50;;;;;;4993905;28;19914;-51
2021/07/17 12:55:52;;;;;;;;;;;29.80;42.60;;;;;;4993603;28;19910;-50
2021/07/17 12:58:17;;;;;;;;;;;29.10;44.10;;;;;;4992365;28;19917;-50
2021/07/17 13:00:44;;;;;;;;;;;29.80;42.90;;;;;;4992300;28;19910;-50
2021/07/17 13:03:10;;;;;;;;;;;30.40;40.90;;;;;;4992478;28;19945;-48
2021/07/17 13:05:52;;;;;;;;;;;29.60;42.00;;;;;;4993724;28;19916;-49
2021/07/17 13:08:22;;;;;;;;;;;28.80;43.40;;;;;;4995076;28;19913;-49
2021/07/17 13:10:48;;;;;;;;;;;29.10;43.40;;;;;;4996861;28;19914;-51
2021/07/17 13:13:14;;;;;;;;;;;29.10;43.20;;;;;;4992269;28;19914;-49
2021/07/17 13:15:40;;;;;;;;;;;29.50;43.20;;;;;;4991842;28;20284;-51
2021/07/17 13:18:18;;;;;;;;;;;29.20;43.20;;;;;;4992938;28;19910;-49
2021/07/17 13:20:43;;;;;;;;;;;28.70;43.70;;;;;;4993043;28;19910;-55
2021/07/17 13:23:10;;;;;;;;;;;29.20;42.80;;;;;;4993025;28;20379;-49
2021/07/17 13:25:38;;;;;;;;;;;30.00;41.50;;;;;;4993137;28;19917;-51
2021/07/17 13:28:05;;;;;;;;;;;29.30;42.30;;;;;;4992970;28;19910;-51
2021/07/17 13:30:31;;;;;;;;;;;28.80;44.40;;;;;;4991227;28;19964;-49
2021/07/17 13:33:08;;;;;;;;;;;29.00;44.40;;;;;;4992767;28;20339;-49
2021/07/17 13:35:35;;;;;;;;;;;30.20;41.50;;;;;;4992846;28;19917;-52
2021/07/17 13:38:02;;;;;;;;;;;30.20;41.30;;;;;;4992952;28;19910;-51
2021/07/17 13:40:30;;;;;;;;;;;29.70;42.70;;;;;;4991483;28;20365;-48
2021/07/17 13:43:00;;;;;;;;;;;30.40;40.80;;;;;;4992600;28;20285;-50
2021/07/17 13:45:25;;;;;;;;;;;31.30;39.30;;;;;;4993259;28;20254;-51
2021/07/17 13:47:55;;;;;;;;;;;31.90;37.70;;;;;;4991567;28;19917;-51
2021/07/17 13:50:21;;;;;;;;;;;30.40;39.80;;;;;;4993016;28;19910;-52
2021/07/17 13:52:47;;;;;;;;;;;29.80;40.00;;;;;;4992736;28;19937;-49
2021/07/17 13:55:23;;;;;;;;;;;29.90;41.60;;;;;;4991958;28;19913;-52
2021/07/17 13:57:49;;;;;;;;;;;29.60;42.60;;;;;;4992639;28;19917;-51
2021/07/17 14:00:18;;;;;;;;;;;30.40;41.80;;;;;;4992576;28;20284;-50
2021/07/17 14:02:44;;;;;;;;;;;29.80;42.50;;;;;;4992471;28;19910;-53
2021/07/17 14:05:11;;;;;;;;;;;29.40;44.40;;;;;;4992116;28;19943;-54
2021/07/17 14:07:37;;;;;;;;;;;28.80;44.50;;;;;;4992094;28;19944;-52
2021/07/17 14:10:03;;;;;;;;;;;29.00;43.80;;;;;;4992175;28;20365;-52
2021/07/17 14:12:28;;;;;;;;;;;29.00;43.80;;;;;;4992144;28;19914;-50
2021/07/17 14:14:55;;;;;;;;;;;28.80;44.70;;;;;;4992025;28;20323;-52